createdAt,value
2019-04-27T00:01:10.605Z,31.77
2019-04-27T00:03:48.869Z,31.90
2019-04-27T00:06:23.730Z,31.57
2019-04-27T00:09:11.634Z,30.23
2019-04-27T00:11:56.312Z,29.43
2019-04-27T00:14:27.876Z,30.73
2019-04-27T00:17:41.303Z,29.80
2019-04-27T00:20:13.135Z,27.80
2019-04-27T00:22:55.816Z,30.30
2019-04-27T00:25:27.035Z,29.67
2019-04-27T00:27:57.044Z,31.47
2019-04-27T00:30:28.455Z,31.80
2019-04-27T00:32:58.556Z,30.50
2019-04-27T00:35:37.073Z,29.13
2019-04-27T00:38:27.076Z,31.57
2019-04-27T00:41:04.129Z,28.77
2019-04-27T00:43:36.133Z,28.57
2019-04-27T00:46:06.220Z,31.37
2019-04-27T00:48:35.973Z,30.70
2019-04-27T00:51:05.996Z,28.97
2019-04-27T00:53:38.171Z,31.43
2019-04-27T00:56:25.311Z,28.97
2019-04-27T00:59:23.832Z,31.03
2019-04-27T01:02:14.813Z,29.17
2019-04-27T01:04:44.676Z,32.03
2019-04-27T01:07:15.272Z,34.07
2019-04-27T01:09:45.312Z,31.73
2019-04-27T01:12:15.658Z,31.87
2019-04-27T01:14:45.753Z,34.80
2019-04-27T01:17:16.341Z,35.47
2019-04-27T01:19:46.153Z,36.07
2019-04-27T01:22:16.390Z,36.00
2019-04-27T01:24:46.179Z,37.93
2019-04-27T01:27:49.464Z,37.07
2019-04-27T01:30:46.742Z,35.63
2019-04-27T01:33:16.951Z,36.73
2019-04-27T01:35:47.006Z,37.53
2019-04-27T01:38:19.091Z,37.57
2019-04-27T01:40:50.486Z,41.07
2019-04-27T01:43:21.309Z,41.83
2019-04-27T01:45:51.544Z,42.30
2019-04-27T01:48:25.819Z,46.37
2019-04-27T01:50:59.248Z,39.37
2019-04-27T01:53:30.458Z,39.57
2019-04-27T01:56:00.368Z,40.03
2019-04-27T01:58:30.389Z,43.90
2019-04-27T02:01:12.561Z,42.93
2019-04-27T02:03:52.409Z,43.43
2019-04-27T02:06:25.722Z,44.07
2019-04-27T02:08:55.635Z,46.73
2019-04-27T02:11:26.045Z,44.00
2019-04-27T02:13:56.710Z,43.63
2019-04-27T02:16:26.846Z,43.00
2019-04-27T02:18:58.601Z,42.63
2019-04-27T02:21:29.442Z,40.30
2019-04-27T02:23:59.892Z,40.53
2019-04-27T02:26:30.134Z,42.33
2019-04-27T02:29:11.500Z,44.20
2019-04-27T02:32:15.738Z,42.70
2019-04-27T02:35:09.098Z,40.57
2019-04-27T02:37:40.377Z,39.70
2019-04-27T02:40:49.606Z,38.83
2019-04-27T02:43:22.353Z,41.90
2019-04-27T02:45:52.886Z,41.00
2019-04-27T02:48:22.697Z,40.43
2019-04-27T02:50:54.920Z,37.40
2019-04-27T02:53:44.289Z,40.20
2019-04-27T02:56:14.743Z,38.70
2019-04-27T02:58:49.608Z,39.63
2019-04-27T03:01:20.294Z,37.60
2019-04-27T03:03:50.908Z,37.50
2019-04-27T03:06:20.997Z,41.57
2019-04-27T03:08:54.194Z,38.57
2019-04-27T03:11:23.445Z,38.67
2019-04-27T03:14:28.327Z,39.57
2019-04-27T03:17:09.985Z,39.80
2019-04-27T03:19:52.279Z,37.30
2019-04-27T03:22:25.898Z,36.00
2019-04-27T03:25:20.208Z,35.70
2019-04-27T03:27:52.697Z,35.10
2019-04-27T03:30:24.129Z,34.07
2019-04-27T03:32:56.623Z,35.90
2019-04-27T03:35:25.990Z,35.87
2019-04-27T03:37:56.208Z,38.40
2019-04-27T03:40:26.601Z,37.03
2019-04-27T03:42:59.673Z,35.80
2019-04-27T03:45:30.237Z,36.00
2019-04-27T03:48:02.283Z,36.80
2019-04-27T03:50:37.422Z,37.13
2019-04-27T03:53:20.546Z,36.23
2019-04-27T03:55:52.411Z,36.73
2019-04-27T03:58:39.541Z,35.87
2019-04-27T04:01:10.616Z,34.57
2019-04-27T04:03:43.150Z,33.67
2019-04-27T04:06:13.410Z,36.20
2019-04-27T04:08:43.364Z,35.60
2019-04-27T04:11:20.890Z,36.93
2019-04-27T04:13:55.412Z,36.77
2019-04-27T04:16:30.836Z,36.67
2019-04-27T04:19:09.458Z,35.00
2019-04-27T04:21:40.011Z,36.00
2019-04-27T04:24:12.184Z,35.70
2019-04-27T04:26:42.274Z,35.93
2019-04-27T04:29:14.443Z,37.20
2019-04-27T04:31:45.311Z,34.40
2019-04-27T04:34:15.333Z,33.57
2019-04-27T04:36:45.542Z,34.53
2019-04-27T04:39:15.583Z,35.77
2019-04-27T04:42:13.561Z,34.20
2019-04-27T04:45:15.907Z,37.50
2019-04-27T04:48:04.907Z,34.73
2019-04-27T04:50:36.684Z,36.33
2019-04-27T04:53:06.665Z,37.50
2019-04-27T04:55:39.086Z,35.90
2019-04-27T04:58:09.354Z,37.60
2019-04-27T05:00:40.197Z,34.13
2019-04-27T05:03:10.462Z,35.10
2019-04-27T05:05:43.543Z,34.07
2019-04-27T05:08:13.274Z,34.47
2019-04-27T05:10:43.620Z,31.70
2019-04-27T05:13:14.137Z,34.30
2019-04-27T05:15:45.293Z,31.27
2019-04-27T05:18:15.588Z,31.20
2019-04-27T05:21:02.160Z,30.27
2019-04-27T05:23:32.111Z,31.67
2019-04-27T05:26:02.848Z,33.50
2019-04-27T05:28:32.854Z,31.40
2019-04-27T05:31:02.897Z,32.20
2019-04-27T05:33:32.997Z,31.77
2019-04-27T05:36:02.998Z,30.77
2019-04-27T05:38:33.288Z,28.73
2019-04-27T05:41:03.858Z,29.20
2019-04-27T05:43:43.298Z,31.80
2019-04-27T05:46:53.398Z,29.10
2019-04-27T05:49:29.464Z,30.87
2019-04-27T05:52:31.518Z,32.27
2019-04-27T05:55:02.562Z,33.00
2019-04-27T05:57:38.935Z,33.10
2019-04-27T06:00:10.559Z,31.43
2019-04-27T06:02:41.043Z,29.40
2019-04-27T06:05:11.089Z,29.57
2019-04-27T06:07:41.937Z,31.13
2019-04-27T06:10:12.497Z,31.13
2019-04-27T06:12:43.494Z,31.90
2019-04-27T06:15:13.960Z,29.27
2019-04-27T06:17:43.988Z,29.97
2019-04-27T06:20:15.549Z,30.20
2019-04-27T06:22:55.589Z,31.50
2019-04-27T06:25:26.162Z,30.27
2019-04-27T06:27:56.271Z,30.17
2019-04-27T06:30:34.770Z,28.70
2019-04-27T06:33:04.769Z,29.90
2019-04-27T06:35:34.815Z,29.73
2019-04-27T06:38:11.622Z,29.07
2019-04-27T06:40:42.573Z,29.93
2019-04-27T06:43:14.365Z,28.97
2019-04-27T06:45:45.865Z,30.20
2019-04-27T06:48:15.828Z,28.70
2019-04-27T06:50:46.157Z,28.70
2019-04-27T06:53:19.140Z,29.60
2019-04-27T06:55:49.740Z,28.17
2019-04-27T06:58:22.191Z,28.20
2019-04-27T07:00:52.381Z,28.73
2019-04-27T07:03:22.436Z,28.03
2019-04-27T07:05:52.453Z,25.97
2019-04-27T07:08:22.471Z,25.90
2019-04-27T07:10:59.093Z,23.07
2019-04-27T07:13:29.296Z,23.23
2019-04-27T07:15:59.754Z,19.43
2019-04-27T07:18:29.941Z,20.60
2019-04-27T07:21:00.474Z,20.37
2019-04-27T07:23:30.570Z,17.20
2019-04-27T07:26:00.575Z,15.47
2019-04-27T07:28:30.610Z,15.17
2019-04-27T07:31:00.655Z,14.70
2019-04-27T07:33:30.653Z,15.30
2019-04-27T07:36:00.601Z,15.63
2019-04-27T07:38:30.685Z,15.43
2019-04-27T07:41:00.570Z,15.03
2019-04-27T07:43:55.663Z,16.03
2019-04-27T07:46:28.180Z,15.57
2019-04-27T07:48:59.434Z,14.30
2019-04-27T07:51:33.610Z,16.60
2019-04-27T07:54:00.817Z,15.10
2019-04-27T07:56:30.815Z,15.17
2019-04-27T07:59:00.745Z,14.40
2019-04-27T08:01:30.770Z,18.10
2019-04-27T08:04:01.130Z,14.97
2019-04-27T08:06:31.279Z,14.50
2019-04-27T08:09:01.621Z,14.10
2019-04-27T08:11:31.629Z,14.60
2019-04-27T08:14:01.868Z,14.87
2019-04-27T08:16:31.888Z,13.93
2019-04-27T08:19:01.884Z,15.20
2019-04-27T08:21:43.106Z,14.30
2019-04-27T08:24:03.535Z,14.50
2019-04-27T08:26:40.857Z,14.70
2019-04-27T08:29:21.748Z,13.40
2019-04-27T08:31:58.566Z,13.30
2019-04-27T08:34:36.333Z,11.43
2019-04-27T08:37:12.731Z,11.17
2019-04-27T08:39:43.015Z,11.67
2019-04-27T08:42:13.017Z,10.63
2019-04-27T08:44:43.025Z,11.73
2019-04-27T08:47:14.046Z,9.10
2019-04-27T08:49:44.469Z,10.30
2019-04-27T08:52:14.915Z,10.07
2019-04-27T08:54:49.301Z,8.93
2019-04-27T08:57:19.479Z,7.13
2019-04-27T08:59:51.126Z,6.70
2019-04-27T09:02:21.482Z,6.33
2019-04-27T09:04:52.493Z,6.10
2019-04-27T09:07:36.893Z,5.67
2019-04-27T09:10:13.138Z,5.40
2019-04-27T09:13:10.975Z,7.17
2019-04-27T09:16:09.314Z,4.93
2019-04-27T09:18:42.309Z,5.00
2019-04-27T09:21:16.742Z,7.67
2019-04-27T09:23:48.853Z,5.23
2019-04-27T09:26:18.990Z,4.30
2019-04-27T09:28:49.380Z,4.17
2019-04-27T09:31:26.315Z,6.30
2019-04-27T09:33:56.673Z,4.33
2019-04-27T09:36:26.924Z,3.97
2019-04-27T09:38:58.162Z,4.30
2019-04-27T09:41:29.480Z,7.50
2019-04-27T09:44:02.490Z,4.10
2019-04-27T09:46:32.867Z,3.80
2019-04-27T09:49:03.394Z,4.73
2019-04-27T09:51:33.474Z,3.27
2019-04-27T09:54:05.778Z,2.87
2019-04-27T09:56:36.441Z,3.50
2019-04-27T09:59:06.545Z,2.27
2019-04-27T10:01:39.582Z,2.90
2019-04-27T10:04:09.798Z,3.20
2019-04-27T10:06:40.207Z,5.97
2019-04-27T10:09:12.544Z,2.40
2019-04-27T10:11:43.571Z,2.10
2019-04-27T10:14:16.225Z,1.90
2019-04-27T10:16:47.913Z,1.80
2019-04-27T10:19:28.148Z,2.53
2019-04-27T10:21:49.624Z,3.93
2019-04-27T10:24:19.573Z,3.23
2019-04-27T10:26:49.650Z,1.83
2019-04-27T10:29:19.637Z,2.83
2019-04-27T10:31:49.674Z,1.80
2019-04-27T10:34:19.662Z,1.70
2019-04-27T10:36:49.496Z,1.70
2019-04-27T10:39:19.840Z,1.20
2019-04-27T10:41:49.770Z,2.00
2019-04-27T10:44:22.272Z,1.23
2019-04-27T10:46:52.832Z,2.30
2019-04-27T10:49:22.769Z,1.60
2019-04-27T10:51:52.807Z,1.40
2019-04-27T10:54:22.890Z,1.53
2019-04-27T10:56:55.856Z,1.13
2019-04-27T10:59:28.679Z,1.57
2019-04-27T11:02:00.882Z,4.30
2019-04-27T11:05:07.974Z,1.40
2019-04-27T11:07:39.565Z,1.87
2019-04-27T11:10:16.300Z,1.80
2019-04-27T11:12:46.962Z,1.33
2019-04-27T11:15:18.061Z,2.20
2019-04-27T11:17:49.343Z,1.67
2019-04-27T11:20:29.325Z,1.37
2019-04-27T11:23:07.097Z,1.47
2019-04-27T11:25:32.029Z,1.20
2019-04-27T11:28:11.301Z,1.73
2019-04-27T11:30:41.522Z,2.37
2019-04-27T11:33:16.210Z,5.10
2019-04-27T11:35:55.737Z,1.77
2019-04-27T11:38:27.443Z,3.27
2019-04-27T11:40:57.737Z,2.40
2019-04-27T11:43:27.896Z,2.97
2019-04-27T11:45:58.195Z,1.30
2019-04-27T11:48:32.938Z,1.60
2019-04-27T11:51:03.292Z,4.10
2019-04-27T11:53:36.225Z,2.47
2019-04-27T11:56:06.543Z,1.20
2019-04-27T11:58:36.216Z,1.47
2019-04-27T12:01:08.507Z,2.80
2019-04-27T12:03:38.709Z,1.90
2019-04-27T12:06:11.637Z,1.27
2019-04-27T12:08:42.620Z,1.50
2019-04-27T12:11:13.219Z,3.30
2019-04-27T12:13:45.983Z,2.20
2019-04-27T12:16:17.570Z,1.70
2019-04-27T12:18:49.220Z,1.20
2019-04-27T12:21:19.288Z,1.80
2019-04-27T12:23:49.353Z,1.87
2019-04-27T12:26:41.202Z,1.33
2019-04-27T12:29:13.518Z,1.00
2019-04-27T12:31:53.199Z,1.00
2019-04-27T12:34:23.415Z,1.10
2019-04-27T12:36:53.547Z,1.47
2019-04-27T12:39:23.425Z,2.40
2019-04-27T12:41:56.043Z,3.90
2019-04-27T12:44:27.954Z,1.10
2019-04-27T12:47:16.343Z,1.33
2019-04-27T12:49:46.471Z,0.60
2019-04-27T12:52:17.461Z,0.77
2019-04-27T12:54:53.519Z,2.33
2019-04-27T12:57:46.353Z,1.20
2019-04-27T13:00:31.411Z,2.30
2019-04-27T13:03:01.524Z,2.13
2019-04-27T13:05:32.138Z,1.50
2019-04-27T13:08:02.626Z,1.23
2019-04-27T13:10:32.637Z,1.30
2019-04-27T13:13:06.337Z,1.70
2019-04-27T13:15:38.802Z,1.20
2019-04-27T13:18:09.971Z,1.37
2019-04-27T13:20:39.811Z,2.20
2019-04-27T13:23:10.061Z,1.33
2019-04-27T13:25:40.295Z,1.30
2019-04-27T13:28:10.650Z,7.23
2019-04-27T13:30:41.279Z,8.83
2019-04-27T13:33:11.762Z,7.23
2019-04-27T13:35:42.078Z,6.63
2019-04-27T13:38:13.222Z,5.60
2019-04-27T13:40:47.650Z,6.00
2019-04-27T13:43:25.907Z,6.60
2019-04-27T13:46:17.586Z,5.07
2019-04-27T13:49:22.291Z,4.37
2019-04-27T13:51:57.504Z,4.17
2019-04-27T13:54:36.224Z,3.37
2019-04-27T13:57:07.621Z,3.70
2019-04-27T13:59:37.958Z,4.40
2019-04-27T14:02:08.321Z,2.83
2019-04-27T14:04:45.397Z,2.33
2019-04-27T14:07:15.429Z,3.87
2019-04-27T14:09:45.443Z,3.20
2019-04-27T14:12:29.858Z,2.43
2019-04-27T14:15:00.024Z,3.00
2019-04-27T14:17:30.042Z,3.30
2019-04-27T14:20:04.162Z,3.37
2019-04-27T14:22:34.129Z,4.20
2019-04-27T14:25:06.196Z,4.20
2019-04-27T14:27:41.918Z,4.63
2019-04-27T14:30:15.577Z,4.70
2019-04-27T14:32:45.951Z,5.30
2019-04-27T14:35:18.135Z,4.80
2019-04-27T14:37:50.283Z,4.80
2019-04-27T14:40:23.531Z,5.07
2019-04-27T14:42:53.939Z,4.60
2019-04-27T14:45:25.562Z,5.03
2019-04-27T14:47:55.590Z,5.77
2019-04-27T14:50:25.676Z,5.03
2019-04-27T14:52:56.087Z,5.20
2019-04-27T14:55:28.264Z,6.20
2019-04-27T14:57:59.306Z,5.73
2019-04-27T15:00:30.662Z,5.83
2019-04-27T15:03:01.284Z,5.70
2019-04-27T15:05:31.335Z,5.77
2019-04-27T15:08:18.854Z,5.53
2019-04-27T15:10:48.754Z,5.63
2019-04-27T15:13:22.396Z,7.17
2019-04-27T15:15:52.714Z,6.07
2019-04-27T15:18:25.118Z,6.20
2019-04-27T15:20:58.456Z,7.70
2019-04-27T15:23:30.882Z,6.77
2019-04-27T15:26:00.892Z,6.87
2019-04-27T15:28:33.036Z,6.83
2019-04-27T15:31:22.411Z,5.87
2019-04-27T15:34:05.597Z,6.50
2019-04-27T15:36:52.795Z,6.97
2019-04-27T15:39:45.571Z,6.70
2019-04-27T15:42:20.897Z,6.07
2019-04-27T15:44:50.982Z,5.37
2019-04-27T15:47:21.645Z,5.70
2019-04-27T15:49:59.104Z,5.93
2019-04-27T15:52:30.271Z,6.50
2019-04-27T15:55:02.842Z,5.80
2019-04-27T15:57:34.618Z,6.47
2019-04-27T16:00:17.196Z,7.07
2019-04-27T16:02:44.427Z,5.97
2019-04-27T16:05:17.473Z,5.67
2019-04-27T16:07:49.658Z,5.57
2019-04-27T16:10:20.144Z,5.80
2019-04-27T16:13:05.797Z,6.13
2019-04-27T16:15:22.534Z,6.50
2019-04-27T16:17:55.863Z,6.50
2019-04-27T16:20:32.234Z,6.67
2019-04-27T16:23:03.279Z,5.90
2019-04-27T16:25:45.350Z,6.47
2019-04-27T16:28:08.759Z,6.07
2019-04-27T16:30:36.628Z,5.90
2019-04-27T16:33:08.684Z,5.97
2019-04-27T16:35:40.209Z,6.70
2019-04-27T16:38:33.570Z,6.97
2019-04-27T16:41:10.965Z,7.63
2019-04-27T16:43:40.965Z,8.83
2019-04-27T16:46:10.972Z,8.27
2019-04-27T16:48:41.394Z,7.90
2019-04-27T16:51:14.470Z,8.40
2019-04-27T16:53:44.794Z,8.27
2019-04-27T16:56:18.139Z,8.23
2019-04-27T16:58:49.084Z,8.50
2019-04-27T17:01:30.461Z,9.77
2019-04-27T17:04:02.068Z,4.40
2019-04-27T17:06:32.034Z,2.60
2019-04-27T17:09:11.480Z,2.17
2019-04-27T17:11:43.648Z,3.13
2019-04-27T17:14:20.560Z,1.90
2019-04-27T17:16:58.119Z,2.60
2019-04-27T17:19:31.234Z,3.50
2019-04-27T17:22:03.599Z,2.10
2019-04-27T17:24:41.976Z,3.03
2019-04-27T17:27:11.696Z,4.03
2019-04-27T17:29:42.112Z,4.73
2019-04-27T17:32:33.665Z,5.37
2019-04-27T17:35:05.283Z,5.50
2019-04-27T17:37:36.218Z,7.10
2019-04-27T17:40:06.220Z,7.63
2019-04-27T17:42:36.265Z,8.40
2019-04-27T17:45:06.377Z,9.03
2019-04-27T17:47:36.218Z,7.37
2019-04-27T17:50:09.301Z,8.30
2019-04-27T17:52:41.669Z,8.10
2019-04-27T17:55:12.331Z,8.10
2019-04-27T17:57:42.353Z,8.63
2019-04-27T18:00:13.389Z,8.43
2019-04-27T18:02:43.406Z,9.17
2019-04-27T18:05:14.973Z,8.70
2019-04-27T18:07:48.665Z,8.87
2019-04-27T18:10:23.197Z,9.10
2019-04-27T18:12:50.481Z,6.50
2019-04-27T18:15:21.450Z,4.80
2019-04-27T18:17:53.502Z,5.40
2019-04-27T18:20:25.285Z,4.43
2019-04-27T18:23:10.585Z,5.13
2019-04-27T18:25:43.646Z,5.40
2019-04-27T18:28:19.062Z,5.03
2019-04-27T18:31:06.736Z,4.30
2019-04-27T18:33:37.181Z,4.07
2019-04-27T18:36:13.672Z,4.90
2019-04-27T18:38:40.551Z,3.87
2019-04-27T18:41:12.722Z,5.13
2019-04-27T18:43:50.795Z,3.83
2019-04-27T18:46:18.865Z,4.87
2019-04-27T18:49:06.643Z,4.37
2019-04-27T18:52:04.210Z,4.00
2019-04-27T18:54:33.093Z,4.50
2019-04-27T18:57:04.723Z,3.60
2019-04-27T18:59:38.040Z,4.10
2019-04-27T19:02:08.583Z,2.90
2019-04-27T19:04:38.724Z,3.20
2019-04-27T19:07:10.564Z,3.00
2019-04-27T19:09:40.887Z,2.87
2019-04-27T19:12:10.838Z,3.23
2019-04-27T19:14:40.870Z,3.33
2019-04-27T19:17:10.940Z,3.07
2019-04-27T19:19:40.858Z,3.10
2019-04-27T19:22:10.874Z,3.40
2019-04-27T19:24:43.976Z,4.13
2019-04-27T19:27:31.901Z,3.60
2019-04-27T19:30:11.631Z,3.80
2019-04-27T19:32:41.661Z,3.67
2019-04-27T19:35:13.970Z,3.23
2019-04-27T19:37:45.064Z,3.90
2019-04-27T19:40:14.956Z,3.00
2019-04-27T19:42:45.013Z,5.27
2019-04-27T19:45:15.001Z,3.40
2019-04-27T19:47:45.038Z,3.90
2019-04-27T19:50:15.010Z,3.80
2019-04-27T19:52:45.016Z,4.37
2019-04-27T19:55:15.403Z,3.17
2019-04-27T19:57:45.491Z,5.17
2019-04-27T20:00:48.389Z,3.57
2019-04-27T20:03:23.888Z,2.73
2019-04-27T20:05:56.138Z,3.10
2019-04-27T20:08:29.754Z,3.47
2019-04-27T20:11:00.087Z,3.27
2019-04-27T20:13:30.089Z,4.10
2019-04-27T20:16:01.218Z,3.77
2019-04-27T20:18:31.757Z,3.53
2019-04-27T20:21:01.729Z,3.83
2019-04-27T20:23:31.613Z,5.40
2019-04-27T20:26:01.690Z,3.40
2019-04-27T20:28:31.640Z,4.57
2019-04-27T20:31:02.811Z,4.10
2019-04-27T20:33:33.097Z,2.63
2019-04-27T20:36:12.845Z,3.13
2019-04-27T20:38:44.880Z,4.43
2019-04-27T20:41:15.317Z,2.30
2019-04-27T20:43:46.747Z,3.53
2019-04-27T20:46:18.634Z,3.03
2019-04-27T20:48:48.785Z,2.30
2019-04-27T20:51:21.399Z,2.83
2019-04-27T20:53:53.133Z,3.63
2019-04-27T20:56:23.979Z,3.90
2019-04-27T20:58:53.857Z,3.03
2019-04-27T21:01:23.850Z,3.50
2019-04-27T21:03:56.817Z,2.80
2019-04-27T21:06:32.849Z,3.20
2019-04-27T21:09:03.953Z,3.60
2019-04-27T21:11:47.587Z,3.63
2019-04-27T21:14:17.577Z,2.87
2019-04-27T21:16:48.292Z,2.17
2019-04-27T21:19:18.573Z,3.07
2019-04-27T21:21:51.068Z,2.80
2019-04-27T21:24:22.755Z,3.43
2019-04-27T21:26:52.580Z,2.87
2019-04-27T21:29:22.422Z,3.07
2019-04-27T21:31:53.020Z,2.60
2019-04-27T21:34:23.454Z,3.07
2019-04-27T21:36:53.209Z,2.97
2019-04-27T21:39:27.490Z,4.00
2019-04-27T21:41:57.705Z,2.83
2019-04-27T21:44:27.718Z,5.20
2019-04-27T21:46:57.771Z,3.67
2019-04-27T21:49:33.754Z,5.07
2019-04-27T21:52:23.486Z,5.30
2019-04-27T21:54:55.138Z,3.70
2019-04-27T21:57:25.206Z,3.40
2019-04-27T21:59:55.599Z,4.57
2019-04-27T22:02:28.199Z,3.70
2019-04-27T22:04:58.217Z,3.87
2019-04-27T22:07:28.241Z,3.53
2019-04-27T22:10:01.917Z,3.97
2019-04-27T22:12:32.820Z,3.60
2019-04-27T22:15:03.270Z,3.10
2019-04-27T22:17:33.234Z,2.70
2019-04-27T22:20:06.263Z,2.50
2019-04-27T22:22:51.622Z,3.30
2019-04-27T22:25:23.297Z,3.17
2019-04-27T22:27:53.885Z,3.90
2019-04-27T22:30:25.333Z,4.80
2019-04-27T22:32:55.533Z,4.00
2019-04-27T22:35:26.571Z,4.37
2019-04-27T22:38:02.061Z,4.00
2019-04-27T22:40:44.346Z,3.73
2019-04-27T22:43:43.041Z,3.40
2019-04-27T22:46:17.444Z,4.23
2019-04-27T22:48:48.528Z,3.70
2019-04-27T22:51:18.922Z,4.43
2019-04-27T22:53:49.141Z,4.60
2019-04-27T22:56:22.158Z,4.77
2019-04-27T22:59:11.455Z,4.23
2019-04-27T23:01:55.678Z,5.90
2019-04-27T23:04:33.295Z,5.23
2019-04-27T23:07:03.571Z,5.63
2019-04-27T23:09:33.650Z,6.27
2019-04-27T23:12:03.753Z,5.70
2019-04-27T23:14:53.257Z,8.70
2019-04-27T23:17:48.612Z,10.40
2019-04-27T23:20:20.729Z,6.90
2019-04-27T23:23:02.902Z,7.03
2019-04-27T23:25:33.750Z,7.73
2019-04-27T23:28:04.869Z,7.77
2019-04-27T23:30:53.408Z,7.13
2019-04-27T23:33:25.330Z,8.50
2019-04-27T23:35:55.432Z,7.20
2019-04-27T23:38:25.365Z,9.13
2019-04-27T23:40:56.417Z,8.63
2019-04-27T23:43:26.232Z,7.23
2019-04-27T23:45:57.364Z,10.07
2019-04-27T23:48:27.236Z,8.57
2019-04-27T23:51:03.051Z,8.30
2019-04-27T23:53:37.354Z,8.20
2019-04-27T23:56:20.554Z,8.50
2019-04-27T23:58:51.002Z,8.03
